sensor_id;sensor_type;location;lat;lon;timestamp;temperature;humidity
62573;DHT22;48626;51.678;5.806;2023-06-10T00:01:29;23.10;99.90
62573;DHT22;48626;51.678;5.806;2023-06-10T00:03:55;23.10;99.90
62573;DHT22;48626;51.678;5.806;2023-06-10T00:06:21;23.10;99.90
62573;DHT22;48626;51.678;5.806;2023-06-10T00:08:50;23.00;99.90
62573;DHT22;48626;51.678;5.806;2023-06-10T00:11:16;23.00;99.90
62573;DHT22;48626;51.678;5.806;2023-06-10T00:13:41;22.90;99.90
62573;DHT22;48626;51.678;5.806;2023-06-10T00:16:07;22.90;99.90
62573;DHT22;48626;51.678;5.806;2023-06-10T00:18:35;22.80;99.90
62573;DHT22;48626;51.678;5.806;2023-06-10T00:21:04;22.80;99.90
62573;DHT22;48626;51.678;5.806;2023-06-10T00:23:31;22.80;99.90
62573;DHT22;48626;51.678;5.806;2023-06-10T00:25:58;22.80;99.90
62573;DHT22;48626;51.678;5.806;2023-06-10T00:28:24;22.70;99.90
62573;DHT22;48626;51.678;5.806;2023-06-10T00:30:50;22.70;99.90
62573;DHT22;48626;51.678;5.806;2023-06-10T00:33:16;22.70;99.90
62573;DHT22;48626;51.678;5.806;2023-06-10T00:35:42;22.70;99.90
62573;DHT22;48626;51.678;5.806;2023-06-10T00:38:07;22.70;99.90
62573;DHT22;48626;51.678;5.806;2023-06-10T00:40:39;22.70;99.90
62573;DHT22;48626;51.678;5.806;2023-06-10T00:43:05;22.70;99.90
62573;DHT22;48626;51.678;5.806;2023-06-10T00:45:31;22.60;99.90
62573;DHT22;48626;51.678;5.806;2023-06-10T00:47:58;22.50;99.90
62573;DHT22;48626;51.678;5.806;2023-06-10T00:50:23;22.50;99.90
62573;DHT22;48626;51.678;5.806;2023-06-10T00:52:49;22.50;99.90
62573;DHT22;48626;51.678;5.806;2023-06-10T00:55:17;22.40;99.90
62573;DHT22;48626;51.678;5.806;2023-06-10T00:57:45;22.40;99.90
62573;DHT22;48626;51.678;5.806;2023-06-10T01:00:11;22.40;99.90
62573;DHT22;48626;51.678;5.806;2023-06-10T01:02:37;22.30;99.90
62573;DHT22;48626;51.678;5.806;2023-06-10T01:05:03;22.30;99.90
62573;DHT22;48626;51.678;5.806;2023-06-10T01:12:59;22.20;99.90
62573;DHT22;48626;51.678;5.806;2023-06-10T01:15:30;22.10;99.90
62573;DHT22;48626;51.678;5.806;2023-06-10T01:18:08;22.10;99.90
62573;DHT22;48626;51.678;5.806;2023-06-10T01:20:41;22.00;99.90
62573;DHT22;48626;51.678;5.806;2023-06-10T01:23:12;22.00;99.90
62573;DHT22;48626;51.678;5.806;2023-06-10T01:25:45;22.00;99.90
62573;DHT22;48626;51.678;5.806;2023-06-10T01:28:24;22.00;99.90
62573;DHT22;48626;51.678;5.806;2023-06-10T01:33:37;21.90;99.90
62573;DHT22;48626;51.678;5.806;2023-06-10T01:36:03;21.80;99.90
62573;DHT22;48626;51.678;5.806;2023-06-10T01:38:55;21.80;99.90
62573;DHT22;48626;51.678;5.806;2023-06-10T01:41:22;21.80;99.90
62573;DHT22;48626;51.678;5.806;2023-06-10T01:43:48;21.70;99.90
62573;DHT22;48626;51.678;5.806;2023-06-10T01:46:15;21.70;99.90
62573;DHT22;48626;51.678;5.806;2023-06-10T01:48:45;21.70;99.90
62573;DHT22;48626;51.678;5.806;2023-06-10T01:51:10;21.60;99.90
62573;DHT22;48626;51.678;5.806;2023-06-10T01:53:36;21.60;99.90
62573;DHT22;48626;51.678;5.806;2023-06-10T01:56:02;21.50;99.90
62573;DHT22;48626;51.678;5.806;2023-06-10T01:58:27;21.50;99.90
62573;DHT22;48626;51.678;5.806;2023-06-10T02:00:53;21.50;99.90
62573;DHT22;48626;51.678;5.806;2023-06-10T02:03:19;21.50;99.90
62573;DHT22;48626;51.678;5.806;2023-06-10T02:05:44;21.40;99.90
62573;DHT22;48626;51.678;5.806;2023-06-10T02:08:10;21.40;99.90
62573;DHT22;48626;51.678;5.806;2023-06-10T02:10:36;21.40;99.90
62573;DHT22;48626;51.678;5.806;2023-06-10T02:13:01;21.30;99.90
62573;DHT22;48626;51.678;5.806;2023-06-10T02:15:27;21.30;99.90
62573;DHT22;48626;51.678;5.806;2023-06-10T02:17:53;21.30;99.90
62573;DHT22;48626;51.678;5.806;2023-06-10T02:20:20;21.30;99.90
62573;DHT22;48626;51.678;5.806;2023-06-10T02:22:46;21.30;99.90
62573;DHT22;48626;51.678;5.806;2023-06-10T02:25:12;21.30;99.90
62573;DHT22;48626;51.678;5.806;2023-06-10T02:27:38;21.20;99.90
62573;DHT22;48626;51.678;5.806;2023-06-10T02:30:04;21.20;99.90
62573;DHT22;48626;51.678;5.806;2023-06-10T02:32:29;21.20;99.90
62573;DHT22;48626;51.678;5.806;2023-06-10T02:34:55;21.10;99.90
62573;DHT22;48626;51.678;5.806;2023-06-10T02:37:21;21.10;99.90
62573;DHT22;48626;51.678;5.806;2023-06-10T02:39:46;21.10;99.90
62573;DHT22;48626;51.678;5.806;2023-06-10T02:42:12;21.10;99.90
62573;DHT22;48626;51.678;5.806;2023-06-10T02:44:38;21.00;99.90
62573;DHT22;48626;51.678;5.806;2023-06-10T02:47:04;21.00;99.90
62573;DHT22;48626;51.678;5.806;2023-06-10T02:49:30;21.00;99.90
62573;DHT22;48626;51.678;5.806;2023-06-10T02:51:56;21.00;99.90
62573;DHT22;48626;51.678;5.806;2023-06-10T02:54:25;20.90;99.90
62573;DHT22;48626;51.678;5.806;2023-06-10T02:56:52;21.00;99.90
62573;DHT22;48626;51.678;5.806;2023-06-10T02:59:18;20.90;99.90
62573;DHT22;48626;51.678;5.806;2023-06-10T03:01:45;20.80;99.90
62573;DHT22;48626;51.678;5.806;2023-06-10T03:04:11;20.80;99.90
62573;DHT22;48626;51.678;5.806;2023-06-10T03:06:39;20.70;99.90
62573;DHT22;48626;51.678;5.806;2023-06-10T03:09:06;20.60;99.90
62573;DHT22;48626;51.678;5.806;2023-06-10T03:11:35;20.60;99.90
62573;DHT22;48626;51.678;5.806;2023-06-10T03:14:01;20.60;99.90
62573;DHT22;48626;51.678;5.806;2023-06-10T03:16:26;20.50;99.90
62573;DHT22;48626;51.678;5.806;2023-06-10T03:18:52;20.50;99.90
62573;DHT22;48626;51.678;5.806;2023-06-10T03:21:18;20.50;99.90
62573;DHT22;48626;51.678;5.806;2023-06-10T03:23:44;20.50;99.90
62573;DHT22;48626;51.678;5.806;2023-06-10T03:26:11;20.40;99.90
62573;DHT22;48626;51.678;5.806;2023-06-10T03:28:38;20.40;99.90
62573;DHT22;48626;51.678;5.806;2023-06-10T03:31:03;20.40;99.90
62573;DHT22;48626;51.678;5.806;2023-06-10T03:33:29;20.40;99.90
62573;DHT22;48626;51.678;5.806;2023-06-10T03:35:55;20.40;99.90
62573;DHT22;48626;51.678;5.806;2023-06-10T03:38:21;20.40;99.90
62573;DHT22;48626;51.678;5.806;2023-06-10T03:40:47;20.30;99.90
62573;DHT22;48626;51.678;5.806;2023-06-10T03:43:12;20.30;99.90
62573;DHT22;48626;51.678;5.806;2023-06-10T03:45:38;20.20;99.90
62573;DHT22;48626;51.678;5.806;2023-06-10T03:48:04;20.20;99.90
62573;DHT22;48626;51.678;5.806;2023-06-10T03:50:30;20.20;99.90
62573;DHT22;48626;51.678;5.806;2023-06-10T03:52:56;20.20;99.90
62573;DHT22;48626;51.678;5.806;2023-06-10T03:55:21;20.20;99.90
62573;DHT22;48626;51.678;5.806;2023-06-10T03:57:49;20.20;99.90
62573;DHT22;48626;51.678;5.806;2023-06-10T04:00:16;20.20;99.90
62573;DHT22;48626;51.678;5.806;2023-06-10T04:02:43;20.20;99.90
62573;DHT22;48626;51.678;5.806;2023-06-10T04:05:14;20.20;99.90
62573;DHT22;48626;51.678;5.806;2023-06-10T04:07:40;20.10;99.90
62573;DHT22;48626;51.678;5.806;2023-06-10T04:10:08;20.10;99.90
62573;DHT22;48626;51.678;5.806;2023-06-10T04:12:35;20.00;99.90
62573;DHT22;48626;51.678;5.806;2023-06-10T04:15:01;20.00;99.90
62573;DHT22;48626;51.678;5.806;2023-06-10T04:17:27;20.00;99.90
62573;DHT22;48626;51.678;5.806;2023-06-10T04:19:53;19.90;99.90
62573;DHT22;48626;51.678;5.806;2023-06-10T04:22:20;19.80;99.90
62573;DHT22;48626;51.678;5.806;2023-06-10T04:24:48;19.90;99.90
62573;DHT22;48626;51.678;5.806;2023-06-10T04:27:14;19.90;99.90
62573;DHT22;48626;51.678;5.806;2023-06-10T04:29:40;19.80;99.90
62573;DHT22;48626;51.678;5.806;2023-06-10T04:32:06;19.90;99.90
62573;DHT22;48626;51.678;5.806;2023-06-10T04:34:37;19.80;99.90
62573;DHT22;48626;51.678;5.806;2023-06-10T04:37:05;19.80;99.90
62573;DHT22;48626;51.678;5.806;2023-06-10T04:39:32;19.80;99.90
62573;DHT22;48626;51.678;5.806;2023-06-10T04:41:57;19.70;99.90
62573;DHT22;48626;51.678;5.806;2023-06-10T04:44:23;19.70;99.90
62573;DHT22;48626;51.678;5.806;2023-06-10T04:46:48;19.70;99.90
62573;DHT22;48626;51.678;5.806;2023-06-10T04:49:14;19.70;99.90
62573;DHT22;48626;51.678;5.806;2023-06-10T04:51:40;19.80;99.90
62573;DHT22;48626;51.678;5.806;2023-06-10T04:54:06;19.80;99.90
62573;DHT22;48626;51.678;5.806;2023-06-10T04:56:32;19.80;99.90
62573;DHT22;48626;51.678;5.806;2023-06-10T04:59:01;19.80;99.90
62573;DHT22;48626;51.678;5.806;2023-06-10T05:01:27;19.80;99.90
62573;DHT22;48626;51.678;5.806;2023-06-10T05:03:53;19.90;99.90
62573;DHT22;48626;51.678;5.806;2023-06-10T05:06:19;19.80;99.90
62573;DHT22;48626;51.678;5.806;2023-06-10T05:08:44;19.90;99.90
62573;DHT22;48626;51.678;5.806;2023-06-10T05:11:10;19.90;99.90
62573;DHT22;48626;51.678;5.806;2023-06-10T05:13:36;19.80;99.90
62573;DHT22;48626;51.678;5.806;2023-06-10T05:16:01;19.90;99.90
62573;DHT22;48626;51.678;5.806;2023-06-10T05:18:27;20.00;99.90
62573;DHT22;48626;51.678;5.806;2023-06-10T05:20:53;20.00;99.90
62573;DHT22;48626;51.678;5.806;2023-06-10T05:23:20;20.00;99.90
62573;DHT22;48626;51.678;5.806;2023-06-10T05:25:45;20.10;99.90
62573;DHT22;48626;51.678;5.806;2023-06-10T05:28:11;20.20;99.90
62573;DHT22;48626;51.678;5.806;2023-06-10T05:30:37;20.20;99.90
62573;DHT22;48626;51.678;5.806;2023-06-10T05:33:04;20.30;99.90
62573;DHT22;48626;51.678;5.806;2023-06-10T05:35:29;20.40;99.90
62573;DHT22;48626;51.678;5.806;2023-06-10T05:37:55;20.40;99.90
62573;DHT22;48626;51.678;5.806;2023-06-10T05:40:21;20.50;99.90
62573;DHT22;48626;51.678;5.806;2023-06-10T05:42:46;20.60;99.90
62573;DHT22;48626;51.678;5.806;2023-06-10T05:45:12;20.60;99.90
62573;DHT22;48626;51.678;5.806;2023-06-10T05:47:38;20.70;99.90
62573;DHT22;48626;51.678;5.806;2023-06-10T05:50:04;20.80;99.90
62573;DHT22;48626;51.678;5.806;2023-06-10T05:52:33;20.90;99.90
62573;DHT22;48626;51.678;5.806;2023-06-10T05:54:59;20.90;99.90
62573;DHT22;48626;51.678;5.806;2023-06-10T05:57:25;20.90;99.90
62573;DHT22;48626;51.678;5.806;2023-06-10T05:59:51;20.90;99.90
62573;DHT22;48626;51.678;5.806;2023-06-10T06:02:17;21.10;99.90
62573;DHT22;48626;51.678;5.806;2023-06-10T06:04:43;21.10;99.90
62573;DHT22;48626;51.678;5.806;2023-06-10T06:07:09;21.10;99.90
62573;DHT22;48626;51.678;5.806;2023-06-10T06:09:34;21.20;99.90
62573;DHT22;48626;51.678;5.806;2023-06-10T06:12:00;21.20;99.90
62573;DHT22;48626;51.678;5.806;2023-06-10T06:14:26;21.30;99.90
62573;DHT22;48626;51.678;5.806;2023-06-10T06:16:51;21.30;99.90
62573;DHT22;48626;51.678;5.806;2023-06-10T06:19:17;21.40;99.90
62573;DHT22;48626;51.678;5.806;2023-06-10T06:21:43;21.40;99.90
62573;DHT22;48626;51.678;5.806;2023-06-10T06:24:08;21.40;99.90
62573;DHT22;48626;51.678;5.806;2023-06-10T06:26:34;21.60;99.90
62573;DHT22;48626;51.678;5.806;2023-06-10T06:29:00;21.60;99.90
62573;DHT22;48626;51.678;5.806;2023-06-10T06:31:26;21.70;99.90
62573;DHT22;48626;51.678;5.806;2023-06-10T06:33:51;21.80;99.90
62573;DHT22;48626;51.678;5.806;2023-06-10T06:36:17;21.80;99.90
62573;DHT22;48626;51.678;5.806;2023-06-10T06:38:43;21.90;99.90
62573;DHT22;48626;51.678;5.806;2023-06-10T06:41:08;21.90;99.90
62573;DHT22;48626;51.678;5.806;2023-06-10T06:43:34;22.00;99.90
62573;DHT22;48626;51.678;5.806;2023-06-10T06:46:00;22.00;99.90
62573;DHT22;48626;51.678;5.806;2023-06-10T06:48:25;22.10;99.90
62573;DHT22;48626;51.678;5.806;2023-06-10T06:50:51;22.10;99.90
62573;DHT22;48626;51.678;5.806;2023-06-10T06:53:17;22.20;99.90
62573;DHT22;48626;51.678;5.806;2023-06-10T06:55:42;22.30;99.90
62573;DHT22;48626;51.678;5.806;2023-06-10T06:58:08;22.40;99.90
62573;DHT22;48626;51.678;5.806;2023-06-10T07:00:34;22.50;99.90
62573;DHT22;48626;51.678;5.806;2023-06-10T07:02:59;22.50;99.90
62573;DHT22;48626;51.678;5.806;2023-06-10T07:05:25;22.60;99.90
62573;DHT22;48626;51.678;5.806;2023-06-10T07:07:54;22.70;99.90
62573;DHT22;48626;51.678;5.806;2023-06-10T07:10:22;22.80;99.90
62573;DHT22;48626;51.678;5.806;2023-06-10T07:12:48;22.90;99.90
62573;DHT22;48626;51.678;5.806;2023-06-10T07:15:14;23.00;99.90
62573;DHT22;48626;51.678;5.806;2023-06-10T07:17:40;23.00;99.90
62573;DHT22;48626;51.678;5.806;2023-06-10T07:20:06;23.10;99.90
62573;DHT22;48626;51.678;5.806;2023-06-10T07:22:31;23.10;99.90
62573;DHT22;48626;51.678;5.806;2023-06-10T07:24:57;23.20;99.90
62573;DHT22;48626;51.678;5.806;2023-06-10T07:27:23;23.30;99.90
62573;DHT22;48626;51.678;5.806;2023-06-10T07:29:49;23.40;99.90
62573;DHT22;48626;51.678;5.806;2023-06-10T07:32:14;23.40;99.90
62573;DHT22;48626;51.678;5.806;2023-06-10T07:34:40;23.50;99.90
62573;DHT22;48626;51.678;5.806;2023-06-10T07:37:06;23.60;99.90
62573;DHT22;48626;51.678;5.806;2023-06-10T07:39:31;23.70;99.90
62573;DHT22;48626;51.678;5.806;2023-06-10T07:41:57;23.70;99.90
62573;DHT22;48626;51.678;5.806;2023-06-10T07:44:23;23.80;99.90
62573;DHT22;48626;51.678;5.806;2023-06-10T07:46:49;23.90;99.90
62573;DHT22;48626;51.678;5.806;2023-06-10T07:49:15;24.00;99.90
62573;DHT22;48626;51.678;5.806;2023-06-10T07:51:40;24.10;99.90
62573;DHT22;48626;51.678;5.806;2023-06-10T07:54:09;24.20;99.90
62573;DHT22;48626;51.678;5.806;2023-06-10T07:56:45;24.30;99.90
62573;DHT22;48626;51.678;5.806;2023-06-10T07:59:14;24.30;99.90
62573;DHT22;48626;51.678;5.806;2023-06-10T08:01:44;24.40;99.90
62573;DHT22;48626;51.678;5.806;2023-06-10T08:04:20;24.40;99.90
62573;DHT22;48626;51.678;5.806;2023-06-10T08:06:48;24.50;99.90
62573;DHT22;48626;51.678;5.806;2023-06-10T08:09:16;24.60;99.90
62573;DHT22;48626;51.678;5.806;2023-06-10T08:11:47;24.70;99.90
62573;DHT22;48626;51.678;5.806;2023-06-10T08:14:13;24.70;99.90
62573;DHT22;48626;51.678;5.806;2023-06-10T08:16:38;24.70;99.90
62573;DHT22;48626;51.678;5.806;2023-06-10T08:19:04;24.80;99.90
62573;DHT22;48626;51.678;5.806;2023-06-10T08:21:30;24.90;99.90
62573;DHT22;48626;51.678;5.806;2023-06-10T08:23:56;25.10;99.90
62573;DHT22;48626;51.678;5.806;2023-06-10T08:26:23;25.20;99.90
62573;DHT22;48626;51.678;5.806;2023-06-10T08:28:49;25.20;99.90
62573;DHT22;48626;51.678;5.806;2023-06-10T08:31:14;25.40;99.90
62573;DHT22;48626;51.678;5.806;2023-06-10T08:33:41;25.40;99.90
62573;DHT22;48626;51.678;5.806;2023-06-10T08:36:07;25.50;99.90
62573;DHT22;48626;51.678;5.806;2023-06-10T08:38:33;25.60;99.90
62573;DHT22;48626;51.678;5.806;2023-06-10T08:41:00;25.60;99.90
62573;DHT22;48626;51.678;5.806;2023-06-10T08:45:59;25.80;99.90
62573;DHT22;48626;51.678;5.806;2023-06-10T08:48:28;25.90;99.90
62573;DHT22;48626;51.678;5.806;2023-06-10T08:50:56;26.00;99.90
62573;DHT22;48626;51.678;5.806;2023-06-10T08:53:24;26.10;99.90
62573;DHT22;48626;51.678;5.806;2023-06-10T08:55:51;26.10;99.90
62573;DHT22;48626;51.678;5.806;2023-06-10T08:58:17;26.20;99.90
62573;DHT22;48626;51.678;5.806;2023-06-10T09:00:44;26.30;99.90
62573;DHT22;48626;51.678;5.806;2023-06-10T09:03:10;26.30;99.90
62573;DHT22;48626;51.678;5.806;2023-06-10T09:05:37;26.40;99.90
62573;DHT22;48626;51.678;5.806;2023-06-10T09:08:04;26.50;99.90
62573;DHT22;48626;51.678;5.806;2023-06-10T09:10:31;26.50;99.90
62573;DHT22;48626;51.678;5.806;2023-06-10T09:12:57;26.60;99.90
62573;DHT22;48626;51.678;5.806;2023-06-10T09:15:23;26.70;99.90
62573;DHT22;48626;51.678;5.806;2023-06-10T09:17:49;26.70;99.90
62573;DHT22;48626;51.678;5.806;2023-06-10T09:20:16;26.90;99.90
62573;DHT22;48626;51.678;5.806;2023-06-10T09:22:42;27.00;99.90
62573;DHT22;48626;51.678;5.806;2023-06-10T09:25:12;27.00;99.90
62573;DHT22;48626;51.678;5.806;2023-06-10T09:27:49;27.10;99.90
62573;DHT22;48626;51.678;5.806;2023-06-10T09:30:34;27.10;99.90
62573;DHT22;48626;51.678;5.806;2023-06-10T09:33:02;27.30;99.90
62573;DHT22;48626;51.678;5.806;2023-06-10T09:35:29;27.30;99.90
62573;DHT22;48626;51.678;5.806;2023-06-10T09:37:59;27.30;99.90
62573;DHT22;48626;51.678;5.806;2023-06-10T09:40:26;27.40;99.90
62573;DHT22;48626;51.678;5.806;2023-06-10T09:43:02;27.50;99.90
62573;DHT22;48626;51.678;5.806;2023-06-10T09:45:30;27.50;99.90
62573;DHT22;48626;51.678;5.806;2023-06-10T09:48:00;27.60;99.90
62573;DHT22;48626;51.678;5.806;2023-06-10T09:50:26;27.70;99.90
62573;DHT22;48626;51.678;5.806;2023-06-10T09:52:51;27.80;99.90
62573;DHT22;48626;51.678;5.806;2023-06-10T09:55:18;27.80;99.90
62573;DHT22;48626;51.678;5.806;2023-06-10T09:57:44;28.00;99.90
62573;DHT22;48626;51.678;5.806;2023-06-10T10:00:14;28.10;99.90
62573;DHT22;48626;51.678;5.806;2023-06-10T10:02:48;28.20;99.90
62573;DHT22;48626;51.678;5.806;2023-06-10T10:05:18;28.30;99.90
62573;DHT22;48626;51.678;5.806;2023-06-10T10:07:45;28.40;99.90
62573;DHT22;48626;51.678;5.806;2023-06-10T10:10:12;28.50;99.90
62573;DHT22;48626;51.678;5.806;2023-06-10T10:12:39;28.50;99.90
62573;DHT22;48626;51.678;5.806;2023-06-10T10:15:10;28.60;99.90
62573;DHT22;48626;51.678;5.806;2023-06-10T10:20:26;28.90;99.90
62573;DHT22;48626;51.678;5.806;2023-06-10T10:22:59;29.00;99.90
62573;DHT22;48626;51.678;5.806;2023-06-10T10:25:29;29.10;99.90
62573;DHT22;48626;51.678;5.806;2023-06-10T10:28:10;29.20;99.90
62573;DHT22;48626;51.678;5.806;2023-06-10T10:30:48;29.40;99.90
62573;DHT22;48626;51.678;5.806;2023-06-10T10:33:55;29.40;99.90
62573;DHT22;48626;51.678;5.806;2023-06-10T10:36:13;29.50;99.90
62573;DHT22;48626;51.678;5.806;2023-06-10T10:38:39;29.50;99.90
62573;DHT22;48626;51.678;5.806;2023-06-10T10:41:08;29.60;99.90
62573;DHT22;48626;51.678;5.806;2023-06-10T10:43:35;29.60;99.90
62573;DHT22;48626;51.678;5.806;2023-06-10T10:46:02;29.80;99.90
62573;DHT22;48626;51.678;5.806;2023-06-10T10:48:38;29.90;99.90
62573;DHT22;48626;51.678;5.806;2023-06-10T10:51:04;30.00;99.90
62573;DHT22;48626;51.678;5.806;2023-06-10T10:53:32;30.20;99.90
62573;DHT22;48626;51.678;5.806;2023-06-10T10:56:14;30.30;99.90
62573;DHT22;48626;51.678;5.806;2023-06-10T10:58:40;30.40;99.90
62573;DHT22;48626;51.678;5.806;2023-06-10T11:01:11;30.50;99.90
62573;DHT22;48626;51.678;5.806;2023-06-10T11:03:46;30.70;99.90
62573;DHT22;48626;51.678;5.806;2023-06-10T11:06:16;30.90;99.90
62573;DHT22;48626;51.678;5.806;2023-06-10T11:11:23;31.00;99.90
62573;DHT22;48626;51.678;5.806;2023-06-10T11:16:39;31.20;99.90
62573;DHT22;48626;51.678;5.806;2023-06-10T11:19:05;31.30;99.90
62573;DHT22;48626;51.678;5.806;2023-06-10T11:21:31;31.40;99.90
62573;DHT22;48626;51.678;5.806;2023-06-10T11:23:58;31.50;99.90
62573;DHT22;48626;51.678;5.806;2023-06-10T11:31:26;31.70;99.90
62573;DHT22;48626;51.678;5.806;2023-06-10T11:33:56;31.90;99.90
62573;DHT22;48626;51.678;5.806;2023-06-10T11:36:23;32.00;99.90
62573;DHT22;48626;51.678;5.806;2023-06-10T11:38:52;32.10;99.90
62573;DHT22;48626;51.678;5.806;2023-06-10T11:41:18;32.20;99.90
62573;DHT22;48626;51.678;5.806;2023-06-10T11:43:47;32.40;99.90
62573;DHT22;48626;51.678;5.806;2023-06-10T11:46:14;32.40;99.90
62573;DHT22;48626;51.678;5.806;2023-06-10T11:48:49;32.60;99.90
62573;DHT22;48626;51.678;5.806;2023-06-10T11:51:15;32.60;99.90
62573;DHT22;48626;51.678;5.806;2023-06-10T11:53:52;32.70;99.90
62573;DHT22;48626;51.678;5.806;2023-06-10T11:56:22;32.70;99.90
62573;DHT22;48626;51.678;5.806;2023-06-10T11:58:53;32.90;99.90
62573;DHT22;48626;51.678;5.806;2023-06-10T12:01:24;33.00;99.90
62573;DHT22;48626;51.678;5.806;2023-06-10T12:04:03;33.10;99.90
62573;DHT22;48626;51.678;5.806;2023-06-10T12:09:33;33.30;99.90
62573;DHT22;48626;51.678;5.806;2023-06-10T12:12:05;33.60;99.90
62573;DHT22;48626;51.678;5.806;2023-06-10T12:20:00;34.00;99.90
62573;DHT22;48626;51.678;5.806;2023-06-10T12:22:26;34.10;99.90
62573;DHT22;48626;51.678;5.806;2023-06-10T12:25:03;34.30;99.90
62573;DHT22;48626;51.678;5.806;2023-06-10T12:27:30;34.50;99.90
62573;DHT22;48626;51.678;5.806;2023-06-10T12:29:58;34.40;99.90
62573;DHT22;48626;51.678;5.806;2023-06-10T12:32:55;34.40;99.90
62573;DHT22;48626;51.678;5.806;2023-06-10T12:35:22;34.50;99.90
62573;DHT22;48626;51.678;5.806;2023-06-10T12:38:03;34.50;99.90
62573;DHT22;48626;51.678;5.806;2023-06-10T12:40:34;34.60;99.90
62573;DHT22;48626;51.678;5.806;2023-06-10T12:43:00;34.80;99.90
62573;DHT22;48626;51.678;5.806;2023-06-10T12:45:34;35.10;99.90
62573;DHT22;48626;51.678;5.806;2023-06-10T12:48:11;35.30;99.90
62573;DHT22;48626;51.678;5.806;2023-06-10T12:50:38;35.50;99.90
62573;DHT22;48626;51.678;5.806;2023-06-10T12:53:04;35.60;99.90
62573;DHT22;48626;51.678;5.806;2023-06-10T12:55:31;35.80;99.90
62573;DHT22;48626;51.678;5.806;2023-06-10T12:57:58;35.90;99.90
62573;DHT22;48626;51.678;5.806;2023-06-10T13:00:24;36.10;99.90
62573;DHT22;48626;51.678;5.806;2023-06-10T13:02:56;36.20;99.90
62573;DHT22;48626;51.678;5.806;2023-06-10T13:05:21;36.10;99.90
62573;DHT22;48626;51.678;5.806;2023-06-10T13:07:47;36.10;99.90
62573;DHT22;48626;51.678;5.806;2023-06-10T13:10:14;36.20;99.90
62573;DHT22;48626;51.678;5.806;2023-06-10T13:12:44;36.40;99.90
62573;DHT22;48626;51.678;5.806;2023-06-10T13:15:11;36.60;99.90
62573;DHT22;48626;51.678;5.806;2023-06-10T13:17:37;36.70;99.90
62573;DHT22;48626;51.678;5.806;2023-06-10T13:20:05;36.70;99.90
62573;DHT22;48626;51.678;5.806;2023-06-10T13:22:32;36.80;99.90
62573;DHT22;48626;51.678;5.806;2023-06-10T13:25:02;36.80;99.90
62573;DHT22;48626;51.678;5.806;2023-06-10T13:27:28;36.90;99.90
62573;DHT22;48626;51.678;5.806;2023-06-10T13:29:54;37.00;99.90
62573;DHT22;48626;51.678;5.806;2023-06-10T13:32:20;37.20;99.90
62573;DHT22;48626;51.678;5.806;2023-06-10T13:34:46;37.20;99.90
62573;DHT22;48626;51.678;5.806;2023-06-10T13:37:12;37.50;99.90
62573;DHT22;48626;51.678;5.806;2023-06-10T13:39:38;37.50;99.90
62573;DHT22;48626;51.678;5.806;2023-06-10T13:42:04;37.60;99.90
62573;DHT22;48626;51.678;5.806;2023-06-10T13:44:31;37.80;99.90
62573;DHT22;48626;51.678;5.806;2023-06-10T13:46:59;37.80;99.90
62573;DHT22;48626;51.678;5.806;2023-06-10T13:49:25;37.90;99.90
62573;DHT22;48626;51.678;5.806;2023-06-10T13:51:50;38.00;99.90
62573;DHT22;48626;51.678;5.806;2023-06-10T13:54:16;38.00;99.90
62573;DHT22;48626;51.678;5.806;2023-06-10T13:56:42;38.10;99.90
62573;DHT22;48626;51.678;5.806;2023-06-10T13:59:07;38.40;99.90
62573;DHT22;48626;51.678;5.806;2023-06-10T14:01:33;38.40;99.90
62573;DHT22;48626;51.678;5.806;2023-06-10T14:04:00;38.50;99.90
62573;DHT22;48626;51.678;5.806;2023-06-10T14:06:26;38.60;99.90
62573;DHT22;48626;51.678;5.806;2023-06-10T14:08:52;38.70;99.90
62573;DHT22;48626;51.678;5.806;2023-06-10T14:11:20;38.90;99.90
62573;DHT22;48626;51.678;5.806;2023-06-10T14:13:46;38.80;99.90
62573;DHT22;48626;51.678;5.806;2023-06-10T14:16:12;38.90;99.90
62573;DHT22;48626;51.678;5.806;2023-06-10T14:18:38;39.10;99.90
62573;DHT22;48626;51.678;5.806;2023-06-10T14:21:03;39.20;99.90
62573;DHT22;48626;51.678;5.806;2023-06-10T14:23:29;39.40;99.90
62573;DHT22;48626;51.678;5.806;2023-06-10T14:25:55;39.50;99.90
62573;DHT22;48626;51.678;5.806;2023-06-10T14:28:20;39.50;99.90
62573;DHT22;48626;51.678;5.806;2023-06-10T14:30:46;39.40;99.90
62573;DHT22;48626;51.678;5.806;2023-06-10T14:33:12;39.60;99.90
62573;DHT22;48626;51.678;5.806;2023-06-10T14:35:37;39.60;99.90
62573;DHT22;48626;51.678;5.806;2023-06-10T14:38:03;39.40;99.90
62573;DHT22;48626;51.678;5.806;2023-06-10T14:40:29;39.60;99.90
62573;DHT22;48626;51.678;5.806;2023-06-10T14:42:55;39.60;99.90
62573;DHT22;48626;51.678;5.806;2023-06-10T14:45:21;39.80;99.90
62573;DHT22;48626;51.678;5.806;2023-06-10T14:47:47;39.90;99.90
62573;DHT22;48626;51.678;5.806;2023-06-10T14:50:13;39.90;99.90
62573;DHT22;48626;51.678;5.806;2023-06-10T14:52:40;40.00;99.90
62573;DHT22;48626;51.678;5.806;2023-06-10T14:55:06;40.10;99.90
62573;DHT22;48626;51.678;5.806;2023-06-10T14:57:31;40.30;99.90
62573;DHT22;48626;51.678;5.806;2023-06-10T14:59:57;40.40;99.90
62573;DHT22;48626;51.678;5.806;2023-06-10T15:02:23;40.40;99.90
62573;DHT22;48626;51.678;5.806;2023-06-10T15:04:49;40.50;99.90
62573;DHT22;48626;51.678;5.806;2023-06-10T15:07:15;40.60;99.90
62573;DHT22;48626;51.678;5.806;2023-06-10T15:09:41;40.60;99.90
62573;DHT22;48626;51.678;5.806;2023-06-10T15:12:08;40.70;99.90
62573;DHT22;48626;51.678;5.806;2023-06-10T15:14:36;40.80;99.90
62573;DHT22;48626;51.678;5.806;2023-06-10T15:17:02;40.80;99.90
62573;DHT22;48626;51.678;5.806;2023-06-10T15:19:28;40.90;99.90
62573;DHT22;48626;51.678;5.806;2023-06-10T15:21:54;40.90;99.90
62573;DHT22;48626;51.678;5.806;2023-06-10T15:24:19;40.90;99.90
62573;DHT22;48626;51.678;5.806;2023-06-10T15:26:45;40.90;99.90
62573;DHT22;48626;51.678;5.806;2023-06-10T15:29:11;41.00;99.90
62573;DHT22;48626;51.678;5.806;2023-06-10T15:31:37;41.10;99.90
62573;DHT22;48626;51.678;5.806;2023-06-10T15:34:03;41.30;99.90
62573;DHT22;48626;51.678;5.806;2023-06-10T15:36:29;41.10;99.90
62573;DHT22;48626;51.678;5.806;2023-06-10T15:39:02;41.20;99.90
62573;DHT22;48626;51.678;5.806;2023-06-10T15:41:28;41.30;99.90
62573;DHT22;48626;51.678;5.806;2023-06-10T15:43:54;41.30;99.90
62573;DHT22;48626;51.678;5.806;2023-06-10T15:46:20;41.40;99.90
62573;DHT22;48626;51.678;5.806;2023-06-10T15:48:46;41.50;99.90
62573;DHT22;48626;51.678;5.806;2023-06-10T15:51:11;41.50;99.90
62573;DHT22;48626;51.678;5.806;2023-06-10T15:53:37;41.50;99.90
62573;DHT22;48626;51.678;5.806;2023-06-10T15:56:03;41.40;99.90
62573;DHT22;48626;51.678;5.806;2023-06-10T15:58:29;41.20;99.90
62573;DHT22;48626;51.678;5.806;2023-06-10T16:00:55;41.30;99.90
62573;DHT22;48626;51.678;5.806;2023-06-10T16:03:20;41.10;99.90